sensor_id;sensor_type;location;lat;lon;timestamp;temperature;humidity
8988;DHT22;4529;51.360;12.474;2023-01-15T00:01:47;11.50;99.90
8988;DHT22;4529;51.360;12.474;2023-01-15T00:06:52;11.60;99.90
8988;DHT22;4529;51.360;12.474;2023-01-15T00:11:56;11.50;99.90
8988;DHT22;4529;51.360;12.474;2023-01-15T00:17:00;11.50;99.90
8988;DHT22;4529;51.360;12.474;2023-01-15T00:22:05;11.50;99.90
8988;DHT22;4529;51.360;12.474;2023-01-15T00:27:09;11.50;99.90
8988;DHT22;4529;51.360;12.474;2023-01-15T00:32:13;11.60;99.90
8988;DHT22;4529;51.360;12.474;2023-01-15T00:37:18;11.50;99.90
8988;DHT22;4529;51.360;12.474;2023-01-15T00:42:22;11.60;99.90
8988;DHT22;4529;51.360;12.474;2023-01-15T00:47:26;11.60;99.90
8988;DHT22;4529;51.360;12.474;2023-01-15T00:52:30;11.50;99.90
8988;DHT22;4529;51.360;12.474;2023-01-15T00:57:33;11.60;99.90
8988;DHT22;4529;51.360;12.474;2023-01-15T01:02:37;11.20;99.90
8988;DHT22;4529;51.360;12.474;2023-01-15T01:07:42;10.90;99.90
8988;DHT22;4529;51.360;12.474;2023-01-15T01:12:45;10.90;99.90
8988;DHT22;4529;51.360;12.474;2023-01-15T01:17:49;10.90;99.90
8988;DHT22;4529;51.360;12.474;2023-01-15T01:22:52;10.80;99.90
8988;DHT22;4529;51.360;12.474;2023-01-15T01:27:55;10.90;99.90
8988;DHT22;4529;51.360;12.474;2023-01-15T01:33:00;10.90;99.90
8988;DHT22;4529;51.360;12.474;2023-01-15T01:38:04;11.00;99.90
8988;DHT22;4529;51.360;12.474;2023-01-15T01:43:20;10.90;99.90
8988;DHT22;4529;51.360;12.474;2023-01-15T01:48:29;11.00;99.90
8988;DHT22;4529;51.360;12.474;2023-01-15T01:53:31;11.00;99.90
8988;DHT22;4529;51.360;12.474;2023-01-15T01:58:35;11.00;99.90
8988;DHT22;4529;51.360;12.474;2023-01-15T02:03:38;11.00;99.90
8988;DHT22;4529;51.360;12.474;2023-01-15T02:08:42;11.10;99.90
8988;DHT22;4529;51.360;12.474;2023-01-15T02:25:27;11.20;99.90
8988;DHT22;4529;51.360;12.474;2023-01-15T02:35:57;11.20;99.90
8988;DHT22;4529;51.360;12.474;2023-01-15T02:41:00;11.30;99.90
8988;DHT22;4529;51.360;12.474;2023-01-15T02:46:04;11.30;99.90
8988;DHT22;4529;51.360;12.474;2023-01-15T02:51:11;11.30;99.90
8988;DHT22;4529;51.360;12.474;2023-01-15T02:56:19;11.30;99.90
8988;DHT22;4529;51.360;12.474;2023-01-15T03:01:23;11.30;99.90
8988;DHT22;4529;51.360;12.474;2023-01-15T03:11:37;11.20;99.90
8988;DHT22;4529;51.360;12.474;2023-01-15T03:16:46;11.20;99.90
8988;DHT22;4529;51.360;12.474;2023-01-15T03:27:05;11.10;99.90
8988;DHT22;4529;51.360;12.474;2023-01-15T03:32:09;11.10;99.90
8988;DHT22;4529;51.360;12.474;2023-01-15T03:37:12;11.10;99.90
8988;DHT22;4529;51.360;12.474;2023-01-15T03:42:45;10.90;99.90
8988;DHT22;4529;51.360;12.474;2023-01-15T03:48:02;10.90;99.90
8988;DHT22;4529;51.360;12.474;2023-01-15T03:53:26;10.90;99.90
8988;DHT22;4529;51.360;12.474;2023-01-15T03:58:40;10.90;99.90
8988;DHT22;4529;51.360;12.474;2023-01-15T04:03:41;10.90;99.90
8988;DHT22;4529;51.360;12.474;2023-01-15T04:08:45;10.90;99.90
8988;DHT22;4529;51.360;12.474;2023-01-15T04:13:49;10.90;99.90
8988;DHT22;4529;51.360;12.474;2023-01-15T04:18:52;10.90;99.90
8988;DHT22;4529;51.360;12.474;2023-01-15T04:23:55;10.90;99.90
8988;DHT22;4529;51.360;12.474;2023-01-15T04:28:59;10.80;99.90
8988;DHT22;4529;51.360;12.474;2023-01-15T04:34:03;10.80;99.90
8988;DHT22;4529;51.360;12.474;2023-01-15T04:39:06;10.50;99.90
8988;DHT22;4529;51.360;12.474;2023-01-15T04:44:11;10.40;99.90
8988;DHT22;4529;51.360;12.474;2023-01-15T04:49:15;10.40;99.90
8988;DHT22;4529;51.360;12.474;2023-01-15T04:54:19;10.50;99.90
8988;DHT22;4529;51.360;12.474;2023-01-15T04:59:24;10.20;99.90
8988;DHT22;4529;51.360;12.474;2023-01-15T05:04:27;10.00;99.90
8988;DHT22;4529;51.360;12.474;2023-01-15T05:09:31;9.70;99.90
8988;DHT22;4529;51.360;12.474;2023-01-15T05:14:35;9.50;99.90
8988;DHT22;4529;51.360;12.474;2023-01-15T05:19:39;9.50;99.90
8988;DHT22;4529;51.360;12.474;2023-01-15T05:24:42;9.20;99.90
8988;DHT22;4529;51.360;12.474;2023-01-15T05:29:46;8.80;99.90
8988;DHT22;4529;51.360;12.474;2023-01-15T05:34:49;8.50;99.90
8988;DHT22;4529;51.360;12.474;2023-01-15T05:39:53;8.20;99.90
8988;DHT22;4529;51.360;12.474;2023-01-15T05:44:57;7.80;99.90
8988;DHT22;4529;51.360;12.474;2023-01-15T05:50:01;7.70;99.90
8988;DHT22;4529;51.360;12.474;2023-01-15T05:55:04;7.70;99.90
8988;DHT22;4529;51.360;12.474;2023-01-15T06:00:08;7.70;99.90
8988;DHT22;4529;51.360;12.474;2023-01-15T06:05:11;7.80;99.90
8988;DHT22;4529;51.360;12.474;2023-01-15T06:10:15;7.80;99.90
8988;DHT22;4529;51.360;12.474;2023-01-15T06:15:18;7.90;99.90
8988;DHT22;4529;51.360;12.474;2023-01-15T06:20:22;7.50;99.90
8988;DHT22;4529;51.360;12.474;2023-01-15T06:25:26;7.40;99.90
8988;DHT22;4529;51.360;12.474;2023-01-15T06:30:31;7.30;99.90
8988;DHT22;4529;51.360;12.474;2023-01-15T06:35:34;7.30;99.90
8988;DHT22;4529;51.360;12.474;2023-01-15T06:40:37;7.30;99.90
8988;DHT22;4529;51.360;12.474;2023-01-15T06:45:41;7.30;99.90
8988;DHT22;4529;51.360;12.474;2023-01-15T06:50:44;7.30;99.90
8988;DHT22;4529;51.360;12.474;2023-01-15T06:55:48;7.30;99.90
8988;DHT22;4529;51.360;12.474;2023-01-15T07:00:52;7.20;99.90
8988;DHT22;4529;51.360;12.474;2023-01-15T07:05:55;7.20;99.90
8988;DHT22;4529;51.360;12.474;2023-01-15T07:11:05;7.20;99.90
8988;DHT22;4529;51.360;12.474;2023-01-15T07:16:08;7.20;99.90
8988;DHT22;4529;51.360;12.474;2023-01-15T07:21:12;7.20;99.90
8988;DHT22;4529;51.360;12.474;2023-01-15T07:26:15;7.20;99.90
8988;DHT22;4529;51.360;12.474;2023-01-15T07:31:19;7.20;99.90
8988;DHT22;4529;51.360;12.474;2023-01-15T07:36:23;7.10;99.90
8988;DHT22;4529;51.360;12.474;2023-01-15T07:41:27;7.10;99.90
8988;DHT22;4529;51.360;12.474;2023-01-15T07:46:31;7.10;99.90
8988;DHT22;4529;51.360;12.474;2023-01-15T07:51:34;7.10;99.90
8988;DHT22;4529;51.360;12.474;2023-01-15T07:56:38;7.10;99.90
8988;DHT22;4529;51.360;12.474;2023-01-15T08:01:42;7.10;99.90
8988;DHT22;4529;51.360;12.474;2023-01-15T08:06:46;7.20;99.90
8988;DHT22;4529;51.360;12.474;2023-01-15T08:11:50;7.20;99.90
8988;DHT22;4529;51.360;12.474;2023-01-15T08:16:54;7.20;99.90
8988;DHT22;4529;51.360;12.474;2023-01-15T08:21:57;7.20;99.90
8988;DHT22;4529;51.360;12.474;2023-01-15T08:27:00;7.20;99.90
8988;DHT22;4529;51.360;12.474;2023-01-15T08:32:05;7.20;99.90
8988;DHT22;4529;51.360;12.474;2023-01-15T08:37:09;7.20;99.90
8988;DHT22;4529;51.360;12.474;2023-01-15T08:42:13;7.20;99.90
8988;DHT22;4529;51.360;12.474;2023-01-15T08:47:17;7.30;99.90
8988;DHT22;4529;51.360;12.474;2023-01-15T08:52:20;7.30;99.90
8988;DHT22;4529;51.360;12.474;2023-01-15T08:57:24;7.30;99.90
8988;DHT22;4529;51.360;12.474;2023-01-15T09:02:28;7.30;99.90
8988;DHT22;4529;51.360;12.474;2023-01-15T09:07:31;7.30;99.90
8988;DHT22;4529;51.360;12.474;2023-01-15T09:12:36;7.10;99.90
8988;DHT22;4529;51.360;12.474;2023-01-15T09:17:39;7.10;99.90
8988;DHT22;4529;51.360;12.474;2023-01-15T09:22:42;7.10;99.90
8988;DHT22;4529;51.360;12.474;2023-01-15T09:27:46;7.10;99.90
8988;DHT22;4529;51.360;12.474;2023-01-15T09:32:51;7.20;99.90
8988;DHT22;4529;51.360;12.474;2023-01-15T09:37:54;7.20;99.90
8988;DHT22;4529;51.360;12.474;2023-01-15T09:43:05;7.50;99.90
8988;DHT22;4529;51.360;12.474;2023-01-15T09:53:56;7.60;99.90
8988;DHT22;4529;51.360;12.474;2023-01-15T09:58:58;7.80;99.90
8988;DHT22;4529;51.360;12.474;2023-01-15T10:09:30;7.80;99.90
8988;DHT22;4529;51.360;12.474;2023-01-15T10:14:36;7.80;99.90
8988;DHT22;4529;51.360;12.474;2023-01-15T10:19:38;7.80;99.90
8988;DHT22;4529;51.360;12.474;2023-01-15T10:24:44;7.90;99.90
8988;DHT22;4529;51.360;12.474;2023-01-15T10:29:48;8.10;99.90
8988;DHT22;4529;51.360;12.474;2023-01-15T10:35:03;8.20;99.90
8988;DHT22;4529;51.360;12.474;2023-01-15T10:40:30;8.40;99.90
8988;DHT22;4529;51.360;12.474;2023-01-15T10:45:42;8.50;99.90
8988;DHT22;4529;51.360;12.474;2023-01-15T10:50:43;8.50;99.90
8988;DHT22;4529;51.360;12.474;2023-01-15T10:56:09;8.60;99.90
8988;DHT22;4529;51.360;12.474;2023-01-15T11:01:17;8.60;99.90
8988;DHT22;4529;51.360;12.474;2023-01-15T11:06:21;8.80;99.90
8988;DHT22;4529;51.360;12.474;2023-01-15T11:11:44;9.00;99.90
8988;DHT22;4529;51.360;12.474;2023-01-15T11:16:48;9.10;99.90
8988;DHT22;4529;51.360;12.474;2023-01-15T11:21:51;9.10;99.90
8988;DHT22;4529;51.360;12.474;2023-01-15T11:26:54;9.20;99.90
8988;DHT22;4529;51.360;12.474;2023-01-15T11:31:59;9.40;99.90
8988;DHT22;4529;51.360;12.474;2023-01-15T11:37:06;9.40;99.90
8988;DHT22;4529;51.360;12.474;2023-01-15T11:42:14;9.40;99.90
8988;DHT22;4529;51.360;12.474;2023-01-15T11:47:16;9.40;99.90
8988;DHT22;4529;51.360;12.474;2023-01-15T11:52:19;9.50;99.90
8988;DHT22;4529;51.360;12.474;2023-01-15T11:57:26;9.50;99.90
8988;DHT22;4529;51.360;12.474;2023-01-15T12:02:38;9.50;99.90
8988;DHT22;4529;51.360;12.474;2023-01-15T12:07:41;9.50;99.90
8988;DHT22;4529;51.360;12.474;2023-01-15T12:13:12;9.60;99.90
8988;DHT22;4529;51.360;12.474;2023-01-15T12:34:13;9.40;99.90
8988;DHT22;4529;51.360;12.474;2023-01-15T12:45:26;9.20;99.90
8988;DHT22;4529;51.360;12.474;2023-01-15T12:49:45;9.20;99.90
8988;DHT22;4529;51.360;12.474;2023-01-15T12:55:01;9.10;99.90
8988;DHT22;4529;51.360;12.474;2023-01-15T13:00:18;9.00;99.90
8988;DHT22;4529;51.360;12.474;2023-01-15T13:05:29;9.00;99.90
8988;DHT22;4529;51.360;12.474;2023-01-15T13:10:29;8.90;99.90
8988;DHT22;4529;51.360;12.474;2023-01-15T13:15:32;8.90;99.90
8988;DHT22;4529;51.360;12.474;2023-01-15T13:20:49;8.80;99.90
8988;DHT22;4529;51.360;12.474;2023-01-15T13:36:40;8.80;99.90
8988;DHT22;4529;51.360;12.474;2023-01-15T13:41:42;8.70;99.90
8988;DHT22;4529;51.360;12.474;2023-01-15T13:46:47;8.70;99.90
8988;DHT22;4529;51.360;12.474;2023-01-15T13:51:50;8.70;99.90
8988;DHT22;4529;51.360;12.474;2023-01-15T13:56:54;8.60;99.90
8988;DHT22;4529;51.360;12.474;2023-01-15T14:01:57;8.60;99.90
8988;DHT22;4529;51.360;12.474;2023-01-15T14:07:01;8.60;99.90
8988;DHT22;4529;51.360;12.474;2023-01-15T14:12:31;8.60;99.90
8988;DHT22;4529;51.360;12.474;2023-01-15T14:28:57;8.50;99.90
8988;DHT22;4529;51.360;12.474;2023-01-15T14:34:18;8.50;99.90
8988;DHT22;4529;51.360;12.474;2023-01-15T14:39:31;8.50;99.90
8988;DHT22;4529;51.360;12.474;2023-01-15T14:44:30;8.50;99.90
8988;DHT22;4529;51.360;12.474;2023-01-15T14:49:42;8.60;99.90
8988;DHT22;4529;51.360;12.474;2023-01-15T14:54:57;8.60;99.90
8988;DHT22;4529;51.360;12.474;2023-01-15T15:00:00;8.40;99.90
8988;DHT22;4529;51.360;12.474;2023-01-15T15:05:05;8.30;99.90
8988;DHT22;4529;51.360;12.474;2023-01-15T15:10:20;8.30;99.90
8988;DHT22;4529;51.360;12.474;2023-01-15T15:20:50;8.20;99.90
8988;DHT22;4529;51.360;12.474;2023-01-15T15:25:53;8.10;99.90
8988;DHT22;4529;51.360;12.474;2023-01-15T15:30:52;8.10;99.90
8988;DHT22;4529;51.360;12.474;2023-01-15T15:35:56;8.00;99.90
8988;DHT22;4529;51.360;12.474;2023-01-15T15:41:03;8.00;99.90
8988;DHT22;4529;51.360;12.474;2023-01-15T15:46:04;8.00;99.90
8988;DHT22;4529;51.360;12.474;2023-01-15T15:51:33;7.90;99.90
8988;DHT22;4529;51.360;12.474;2023-01-15T15:56:35;7.90;99.90
8988;DHT22;4529;51.360;12.474;2023-01-15T16:01:39;7.80;99.90
8988;DHT22;4529;51.360;12.474;2023-01-15T16:06:43;7.70;99.90
8988;DHT22;4529;51.360;12.474;2023-01-15T16:11:47;7.70;99.90
8988;DHT22;4529;51.360;12.474;2023-01-15T16:16:50;7.50;99.90
8988;DHT22;4529;51.360;12.474;2023-01-15T16:21:54;7.40;99.90
8988;DHT22;4529;51.360;12.474;2023-01-15T16:27:04;7.30;99.90
8988;DHT22;4529;51.360;12.474;2023-01-15T16:32:11;7.20;99.90
8988;DHT22;4529;51.360;12.474;2023-01-15T16:37:24;7.20;99.90
8988;DHT22;4529;51.360;12.474;2023-01-15T16:42:37;7.20;99.90
8988;DHT22;4529;51.360;12.474;2023-01-15T16:47:39;7.20;99.90
8988;DHT22;4529;51.360;12.474;2023-01-15T16:53:02;7.20;99.90
8988;DHT22;4529;51.360;12.474;2023-01-15T16:58:14;7.30;99.90
8988;DHT22;4529;51.360;12.474;2023-01-15T17:03:23;7.40;99.90
8988;DHT22;4529;51.360;12.474;2023-01-15T17:13:37;7.50;99.90
8988;DHT22;4529;51.360;12.474;2023-01-15T17:18:40;7.50;99.90
8988;DHT22;4529;51.360;12.474;2023-01-15T17:23:43;7.50;99.90
8988;DHT22;4529;51.360;12.474;2023-01-15T17:28:47;7.50;99.90
8988;DHT22;4529;51.360;12.474;2023-01-15T17:33:51;7.50;99.90
8988;DHT22;4529;51.360;12.474;2023-01-15T17:38:55;7.50;99.90
8988;DHT22;4529;51.360;12.474;2023-01-15T17:43:59;7.50;99.90
8988;DHT22;4529;51.360;12.474;2023-01-15T17:49:02;7.50;99.90
8988;DHT22;4529;51.360;12.474;2023-01-15T17:54:06;7.40;99.90
8988;DHT22;4529;51.360;12.474;2023-01-15T17:59:10;7.50;99.90
8988;DHT22;4529;51.360;12.474;2023-01-15T18:04:32;7.50;99.90
8988;DHT22;4529;51.360;12.474;2023-01-15T18:09:34;7.40;99.90
8988;DHT22;4529;51.360;12.474;2023-01-15T18:14:37;7.50;99.90
8988;DHT22;4529;51.360;12.474;2023-01-15T18:19:42;7.40;99.90
8988;DHT22;4529;51.360;12.474;2023-01-15T18:24:51;7.40;99.90
8988;DHT22;4529;51.360;12.474;2023-01-15T18:29:55;7.40;99.90
8988;DHT22;4529;51.360;12.474;2023-01-15T18:34:58;7.40;99.90
8988;DHT22;4529;51.360;12.474;2023-01-15T18:40:01;7.40;99.90
8988;DHT22;4529;51.360;12.474;2023-01-15T18:45:05;7.30;99.90
8988;DHT22;4529;51.360;12.474;2023-01-15T18:50:09;7.30;99.90
8988;DHT22;4529;51.360;12.474;2023-01-15T18:55:17;7.30;99.90
8988;DHT22;4529;51.360;12.474;2023-01-15T19:00:21;7.40;99.90
8988;DHT22;4529;51.360;12.474;2023-01-15T19:05:25;7.40;99.90
8988;DHT22;4529;51.360;12.474;2023-01-15T19:10:29;7.40;99.90
8988;DHT22;4529;51.360;12.474;2023-01-15T19:15:32;7.30;99.90
8988;DHT22;4529;51.360;12.474;2023-01-15T19:20:38;7.40;99.90
8988;DHT22;4529;51.360;12.474;2023-01-15T19:25:43;7.30;99.90
8988;DHT22;4529;51.360;12.474;2023-01-15T19:30:46;7.30;99.90
8988;DHT22;4529;51.360;12.474;2023-01-15T19:35:51;7.40;99.90
8988;DHT22;4529;51.360;12.474;2023-01-15T19:40:52;7.40;99.90
8988;DHT22;4529;51.360;12.474;2023-01-15T19:45:56;7.30;99.90
8988;DHT22;4529;51.360;12.474;2023-01-15T19:50:59;7.40;99.90
8988;DHT22;4529;51.360;12.474;2023-01-15T19:56:03;7.30;99.90
8988;DHT22;4529;51.360;12.474;2023-01-15T20:01:11;7.40;99.90
8988;DHT22;4529;51.360;12.474;2023-01-15T20:06:10;7.30;99.90
8988;DHT22;4529;51.360;12.474;2023-01-15T20:11:13;7.30;99.90
8988;DHT22;4529;51.360;12.474;2023-01-15T20:16:17;7.30;99.90
8988;DHT22;4529;51.360;12.474;2023-01-15T20:21:20;7.30;99.90
8988;DHT22;4529;51.360;12.474;2023-01-15T20:26:27;7.30;99.90
8988;DHT22;4529;51.360;12.474;2023-01-15T20:31:30;7.40;99.90
8988;DHT22;4529;51.360;12.474;2023-01-15T20:36:33;7.20;99.90
8988;DHT22;4529;51.360;12.474;2023-01-15T20:41:37;7.00;99.90
8988;DHT22;4529;51.360;12.474;2023-01-15T20:46:40;6.80;99.90
8988;DHT22;4529;51.360;12.474;2023-01-15T20:51:45;6.70;99.90
8988;DHT22;4529;51.360;12.474;2023-01-15T20:56:55;6.60;99.90
8988;DHT22;4529;51.360;12.474;2023-01-15T21:01:59;6.60;99.90
8988;DHT22;4529;51.360;12.474;2023-01-15T21:07:02;6.60;99.90
8988;DHT22;4529;51.360;12.474;2023-01-15T21:12:05;6.60;99.90
8988;DHT22;4529;51.360;12.474;2023-01-15T21:17:10;6.40;99.90
8988;DHT22;4529;51.360;12.474;2023-01-15T21:22:13;6.50;99.90
8988;DHT22;4529;51.360;12.474;2023-01-15T21:27:17;6.40;99.90
8988;DHT22;4529;51.360;12.474;2023-01-15T21:32:21;6.40;99.90
8988;DHT22;4529;51.360;12.474;2023-01-15T21:37:23;6.40;99.90
8988;DHT22;4529;51.360;12.474;2023-01-15T21:42:27;6.40;99.90
8988;DHT22;4529;51.360;12.474;2023-01-15T21:47:30;6.40;99.90
8988;DHT22;4529;51.360;12.474;2023-01-15T21:52:34;6.40;99.90
8988;DHT22;4529;51.360;12.474;2023-01-15T21:57:46;6.40;99.90
8988;DHT22;4529;51.360;12.474;2023-01-15T22:02:49;6.40;99.90
8988;DHT22;4529;51.360;12.474;2023-01-15T22:07:53;6.40;99.90
8988;DHT22;4529;51.360;12.474;2023-01-15T22:12:56;6.40;99.90
8988;DHT22;4529;51.360;12.474;2023-01-15T22:18:00;6.40;99.90
8988;DHT22;4529;51.360;12.474;2023-01-15T22:23:03;6.30;99.90
8988;DHT22;4529;51.360;12.474;2023-01-15T22:28:07;6.30;99.90
8988;DHT22;4529;51.360;12.474;2023-01-15T22:33:11;6.30;99.90
8988;DHT22;4529;51.360;12.474;2023-01-15T22:38:15;6.30;99.90
8988;DHT22;4529;51.360;12.474;2023-01-15T22:43:19;6.30;99.90
8988;DHT22;4529;51.360;12.474;2023-01-15T22:48:22;6.30;99.90
8988;DHT22;4529;51.360;12.474;2023-01-15T22:53:25;6.40;99.90
8988;DHT22;4529;51.360;12.474;2023-01-15T22:58:29;6.40;99.90
8988;DHT22;4529;51.360;12.474;2023-01-15T23:03:33;6.40;99.90
8988;DHT22;4529;51.360;12.474;2023-01-15T23:08:36;6.30;99.90
8988;DHT22;4529;51.360;12.474;2023-01-15T23:13:39;6.40;99.90
8988;DHT22;4529;51.360;12.474;2023-01-15T23:18:43;6.50;99.90
8988;DHT22;4529;51.360;12.474;2023-01-15T23:23:51;6.60;99.90
8988;DHT22;4529;51.360;12.474;2023-01-15T23:28:51;6.60;99.90
8988;DHT22;4529;51.360;12.474;2023-01-15T23:33:54;6.50;99.90
8988;DHT22;4529;51.360;12.474;2023-01-15T23:38:57;6.50;99.90
8988;DHT22;4529;51.360;12.474;2023-01-15T23:44:01;6.50;99.90
8988;DHT22;4529;51.360;12.474;2023-01-15T23:49:05;6.50;99.90
8988;DHT22;4529;51.360;12.474;2023-01-15T23:54:08;6.50;99.90
8988;DHT22;4529;51.360;12.474;2023-01-15T23:59:11;6.40;99.90
